sensor_id;sensor_type;location;lat;lon;timestamp;P1;durP1;ratioP1;P2;durP2;ratioP2
18653;SDS011;9456;47.824;16.228;2022-12-18T00:01:45;45.30;;;26.93;;
18653;SDS011;9456;47.824;16.228;2022-12-18T00:04:17;48.47;;;28.70;;
18653;SDS011;9456;47.824;16.228;2022-12-18T00:06:45;46.07;;;28.27;;
18653;SDS011;9456;47.824;16.228;2022-12-18T00:09:14;48.20;;;28.90;;
18653;SDS011;9456;47.824;16.228;2022-12-18T00:11:42;52.27;;;30.30;;
18653;SDS011;9456;47.824;16.228;2022-12-18T00:14:12;51.20;;;32.00;;
18653;SDS011;9456;47.824;16.228;2022-12-18T00:16:42;46.87;;;28.73;;
18653;SDS011;9456;47.824;16.228;2022-12-18T00:19:11;53.90;;;31.60;;
18653;SDS011;9456;47.824;16.228;2022-12-18T00:21:41;54.53;;;30.80;;
18653;SDS011;9456;47.824;16.228;2022-12-18T00:24:09;53.30;;;30.43;;
18653;SDS011;9456;47.824;16.228;2022-12-18T00:26:38;53.67;;;31.40;;
18653;SDS011;9456;47.824;16.228;2022-12-18T00:29:09;51.30;;;30.27;;
18653;SDS011;9456;47.824;16.228;2022-12-18T00:31:37;58.30;;;32.63;;
18653;SDS011;9456;47.824;16.228;2022-12-18T00:34:06;59.63;;;32.57;;
18653;SDS011;9456;47.824;16.228;2022-12-18T00:36:36;57.03;;;32.87;;
18653;SDS011;9456;47.824;16.228;2022-12-18T00:39:05;54.30;;;30.67;;
18653;SDS011;9456;47.824;16.228;2022-12-18T00:41:34;51.07;;;31.07;;
18653;SDS011;9456;47.824;16.228;2022-12-18T00:44:21;54.43;;;31.90;;
18653;SDS011;9456;47.824;16.228;2022-12-18T00:46:50;59.53;;;33.10;;
18653;SDS011;9456;47.824;16.228;2022-12-18T00:49:19;124.37;;;64.33;;
18653;SDS011;9456;47.824;16.228;2022-12-18T00:51:48;100.53;;;51.83;;
18653;SDS011;9456;47.824;16.228;2022-12-18T00:54:17;89.70;;;47.47;;
18653;SDS011;9456;47.824;16.228;2022-12-18T00:56:46;66.07;;;37.27;;
18653;SDS011;9456;47.824;16.228;2022-12-18T00:59:15;50.60;;;28.30;;
18653;SDS011;9456;47.824;16.228;2022-12-18T01:01:44;55.23;;;29.87;;
18653;SDS011;9456;47.824;16.228;2022-12-18T01:04:13;51.93;;;27.90;;
18653;SDS011;9456;47.824;16.228;2022-12-18T01:06:42;51.40;;;28.47;;
18653;SDS011;9456;47.824;16.228;2022-12-18T01:09:11;46.83;;;27.43;;
18653;SDS011;9456;47.824;16.228;2022-12-18T01:11:40;46.90;;;26.77;;
18653;SDS011;9456;47.824;16.228;2022-12-18T01:14:18;49.10;;;27.77;;
18653;SDS011;9456;47.824;16.228;2022-12-18T01:16:46;44.80;;;26.53;;
18653;SDS011;9456;47.824;16.228;2022-12-18T01:19:15;46.40;;;27.00;;
18653;SDS011;9456;47.824;16.228;2022-12-18T01:21:44;46.77;;;26.60;;
18653;SDS011;9456;47.824;16.228;2022-12-18T01:24:13;51.07;;;29.77;;
18653;SDS011;9456;47.824;16.228;2022-12-18T01:26:42;58.40;;;30.80;;
18653;SDS011;9456;47.824;16.228;2022-12-18T01:29:11;55.97;;;33.13;;
18653;SDS011;9456;47.824;16.228;2022-12-18T01:31:40;51.63;;;29.07;;
18653;SDS011;9456;47.824;16.228;2022-12-18T01:34:09;57.60;;;31.47;;
18653;SDS011;9456;47.824;16.228;2022-12-18T01:36:38;60.13;;;32.10;;
18653;SDS011;9456;47.824;16.228;2022-12-18T01:39:09;55.33;;;31.83;;
18653;SDS011;9456;47.824;16.228;2022-12-18T01:41:46;51.37;;;29.47;;
18653;SDS011;9456;47.824;16.228;2022-12-18T01:44:53;50.77;;;28.20;;
18653;SDS011;9456;47.824;16.228;2022-12-18T01:47:26;52.00;;;27.97;;
18653;SDS011;9456;47.824;16.228;2022-12-18T01:49:56;52.57;;;27.37;;
18653;SDS011;9456;47.824;16.228;2022-12-18T01:52:25;42.77;;;25.60;;
18653;SDS011;9456;47.824;16.228;2022-12-18T01:54:54;50.77;;;27.77;;
18653;SDS011;9456;47.824;16.228;2022-12-18T01:57:32;47.93;;;25.57;;
18653;SDS011;9456;47.824;16.228;2022-12-18T02:00:03;40.97;;;23.87;;
18653;SDS011;9456;47.824;16.228;2022-12-18T02:02:30;39.77;;;22.63;;
18653;SDS011;9456;47.824;16.228;2022-12-18T02:04:59;43.27;;;25.20;;
18653;SDS011;9456;47.824;16.228;2022-12-18T02:07:31;37.20;;;22.93;;
18653;SDS011;9456;47.824;16.228;2022-12-18T02:10:02;45.83;;;25.13;;
18653;SDS011;9456;47.824;16.228;2022-12-18T02:15:20;40.50;;;24.57;;
18653;SDS011;9456;47.824;16.228;2022-12-18T02:17:50;41.00;;;23.77;;
18653;SDS011;9456;47.824;16.228;2022-12-18T02:20:19;37.80;;;23.27;;
18653;SDS011;9456;47.824;16.228;2022-12-18T02:22:55;37.70;;;21.47;;
18653;SDS011;9456;47.824;16.228;2022-12-18T02:25:32;36.57;;;21.53;;
18653;SDS011;9456;47.824;16.228;2022-12-18T02:28:03;39.03;;;22.40;;
18653;SDS011;9456;47.824;16.228;2022-12-18T02:30:31;35.67;;;21.07;;
18653;SDS011;9456;47.824;16.228;2022-12-18T02:33:00;43.07;;;22.83;;
18653;SDS011;9456;47.824;16.228;2022-12-18T02:35:29;38.50;;;22.50;;
18653;SDS011;9456;47.824;16.228;2022-12-18T02:37:58;40.03;;;21.67;;
18653;SDS011;9456;47.824;16.228;2022-12-18T02:40:27;35.00;;;20.03;;
18653;SDS011;9456;47.824;16.228;2022-12-18T02:50:58;33.37;;;20.30;;
18653;SDS011;9456;47.824;16.228;2022-12-18T02:53:28;33.00;;;19.53;;
18653;SDS011;9456;47.824;16.228;2022-12-18T02:55:58;37.60;;;20.83;;
18653;SDS011;9456;47.824;16.228;2022-12-18T02:58:29;35.67;;;20.40;;
18653;SDS011;9456;47.824;16.228;2022-12-18T03:00:58;35.73;;;21.63;;
18653;SDS011;9456;47.824;16.228;2022-12-18T03:03:28;41.47;;;21.57;;
18653;SDS011;9456;47.824;16.228;2022-12-18T03:05:56;38.10;;;21.67;;
18653;SDS011;9456;47.824;16.228;2022-12-18T03:08:26;34.87;;;21.00;;
18653;SDS011;9456;47.824;16.228;2022-12-18T03:10:55;35.00;;;20.87;;
18653;SDS011;9456;47.824;16.228;2022-12-18T03:13:25;40.27;;;21.07;;
18653;SDS011;9456;47.824;16.228;2022-12-18T03:16:02;35.77;;;20.53;;
18653;SDS011;9456;47.824;16.228;2022-12-18T03:18:32;41.37;;;24.23;;
18653;SDS011;9456;47.824;16.228;2022-12-18T03:21:02;44.93;;;23.83;;
18653;SDS011;9456;47.824;16.228;2022-12-18T03:23:32;36.03;;;22.40;;
18653;SDS011;9456;47.824;16.228;2022-12-18T03:26:00;39.57;;;22.10;;
18653;SDS011;9456;47.824;16.228;2022-12-18T03:28:28;38.63;;;22.03;;
18653;SDS011;9456;47.824;16.228;2022-12-18T03:30:58;39.53;;;21.83;;
18653;SDS011;9456;47.824;16.228;2022-12-18T03:33:27;42.20;;;22.43;;
18653;SDS011;9456;47.824;16.228;2022-12-18T03:35:55;41.37;;;22.57;;
18653;SDS011;9456;47.824;16.228;2022-12-18T03:38:24;46.10;;;22.97;;
18653;SDS011;9456;47.824;16.228;2022-12-18T03:40:56;38.77;;;21.70;;
18653;SDS011;9456;47.824;16.228;2022-12-18T03:43:28;40.13;;;22.33;;
18653;SDS011;9456;47.824;16.228;2022-12-18T03:46:05;34.20;;;21.67;;
18653;SDS011;9456;47.824;16.228;2022-12-18T03:48:34;40.03;;;22.00;;
18653;SDS011;9456;47.824;16.228;2022-12-18T03:51:05;37.03;;;21.97;;
18653;SDS011;9456;47.824;16.228;2022-12-18T03:53:35;35.17;;;21.27;;
18653;SDS011;9456;47.824;16.228;2022-12-18T03:56:03;34.97;;;19.83;;
18653;SDS011;9456;47.824;16.228;2022-12-18T03:58:32;45.33;;;26.67;;
18653;SDS011;9456;47.824;16.228;2022-12-18T04:01:02;55.40;;;34.67;;
18653;SDS011;9456;47.824;16.228;2022-12-18T04:03:30;43.20;;;23.60;;
18653;SDS011;9456;47.824;16.228;2022-12-18T04:05:59;41.00;;;22.67;;
18653;SDS011;9456;47.824;16.228;2022-12-18T04:08:28;36.63;;;21.77;;
18653;SDS011;9456;47.824;16.228;2022-12-18T04:10:57;41.90;;;22.73;;
18653;SDS011;9456;47.824;16.228;2022-12-18T04:13:29;36.70;;;21.37;;
18653;SDS011;9456;47.824;16.228;2022-12-18T04:15:57;41.97;;;21.83;;
18653;SDS011;9456;47.824;16.228;2022-12-18T04:18:26;41.67;;;23.37;;
18653;SDS011;9456;47.824;16.228;2022-12-18T04:20:55;41.10;;;23.47;;
18653;SDS011;9456;47.824;16.228;2022-12-18T04:23:24;37.57;;;21.57;;
18653;SDS011;9456;47.824;16.228;2022-12-18T04:25:53;39.27;;;21.73;;
18653;SDS011;9456;47.824;16.228;2022-12-18T04:28:22;38.13;;;22.90;;
18653;SDS011;9456;47.824;16.228;2022-12-18T04:30:51;39.67;;;21.80;;
18653;SDS011;9456;47.824;16.228;2022-12-18T04:33:20;38.33;;;22.23;;
18653;SDS011;9456;47.824;16.228;2022-12-18T04:35:48;39.80;;;22.13;;
18653;SDS011;9456;47.824;16.228;2022-12-18T04:38:18;38.43;;;21.07;;
18653;SDS011;9456;47.824;16.228;2022-12-18T04:40:47;36.20;;;20.03;;
18653;SDS011;9456;47.824;16.228;2022-12-18T04:43:15;33.47;;;20.53;;
18653;SDS011;9456;47.824;16.228;2022-12-18T04:45:45;34.47;;;19.33;;
18653;SDS011;9456;47.824;16.228;2022-12-18T04:50:56;33.50;;;19.07;;
18653;SDS011;9456;47.824;16.228;2022-12-18T04:53:25;42.33;;;22.37;;
18653;SDS011;9456;47.824;16.228;2022-12-18T04:56:03;37.50;;;20.50;;
18653;SDS011;9456;47.824;16.228;2022-12-18T04:58:32;35.07;;;18.53;;
18653;SDS011;9456;47.824;16.228;2022-12-18T05:01:02;35.43;;;18.80;;
18653;SDS011;9456;47.824;16.228;2022-12-18T05:03:30;32.80;;;20.07;;
18653;SDS011;9456;47.824;16.228;2022-12-18T05:05:59;34.60;;;20.10;;
18653;SDS011;9456;47.824;16.228;2022-12-18T05:08:28;37.13;;;21.53;;
18653;SDS011;9456;47.824;16.228;2022-12-18T05:11:01;31.20;;;19.57;;
18653;SDS011;9456;47.824;16.228;2022-12-18T05:13:30;36.83;;;21.17;;
18653;SDS011;9456;47.824;16.228;2022-12-18T05:15:58;37.67;;;20.57;;
18653;SDS011;9456;47.824;16.228;2022-12-18T05:18:27;40.43;;;22.13;;
18653;SDS011;9456;47.824;16.228;2022-12-18T05:20:56;37.50;;;21.60;;
18653;SDS011;9456;47.824;16.228;2022-12-18T05:23:25;36.73;;;21.17;;
18653;SDS011;9456;47.824;16.228;2022-12-18T05:25:55;32.97;;;20.13;;
18653;SDS011;9456;47.824;16.228;2022-12-18T05:28:24;30.87;;;18.93;;
18653;SDS011;9456;47.824;16.228;2022-12-18T05:30:53;33.37;;;20.03;;
18653;SDS011;9456;47.824;16.228;2022-12-18T05:33:22;39.00;;;21.07;;
18653;SDS011;9456;47.824;16.228;2022-12-18T05:35:51;35.30;;;19.60;;
18653;SDS011;9456;47.824;16.228;2022-12-18T05:38:20;35.37;;;19.77;;
18653;SDS011;9456;47.824;16.228;2022-12-18T05:40:49;32.70;;;18.37;;
18653;SDS011;9456;47.824;16.228;2022-12-18T05:43:18;34.00;;;20.00;;
18653;SDS011;9456;47.824;16.228;2022-12-18T05:45:47;36.50;;;20.53;;
18653;SDS011;9456;47.824;16.228;2022-12-18T05:48:16;34.77;;;20.13;;
18653;SDS011;9456;47.824;16.228;2022-12-18T05:50:45;34.77;;;20.60;;
18653;SDS011;9456;47.824;16.228;2022-12-18T05:53:15;32.77;;;18.07;;
18653;SDS011;9456;47.824;16.228;2022-12-18T05:55:43;34.43;;;18.83;;
18653;SDS011;9456;47.824;16.228;2022-12-18T05:58:12;33.73;;;18.77;;
18653;SDS011;9456;47.824;16.228;2022-12-18T06:00:42;33.00;;;19.63;;
18653;SDS011;9456;47.824;16.228;2022-12-18T06:03:10;33.33;;;18.67;;
18653;SDS011;9456;47.824;16.228;2022-12-18T06:05:40;43.43;;;22.17;;
18653;SDS011;9456;47.824;16.228;2022-12-18T06:08:08;42.37;;;21.97;;
18653;SDS011;9456;47.824;16.228;2022-12-18T06:10:37;36.53;;;21.10;;
18653;SDS011;9456;47.824;16.228;2022-12-18T06:13:06;38.13;;;20.67;;
18653;SDS011;9456;47.824;16.228;2022-12-18T06:15:36;34.57;;;21.47;;
18653;SDS011;9456;47.824;16.228;2022-12-18T06:18:05;43.83;;;24.97;;
18653;SDS011;9456;47.824;16.228;2022-12-18T06:20:34;45.13;;;24.63;;
18653;SDS011;9456;47.824;16.228;2022-12-18T06:23:03;39.00;;;21.90;;
18653;SDS011;9456;47.824;16.228;2022-12-18T06:25:32;48.73;;;27.60;;
18653;SDS011;9456;47.824;16.228;2022-12-18T06:28:02;55.17;;;30.30;;
18653;SDS011;9456;47.824;16.228;2022-12-18T06:30:31;51.33;;;28.60;;
18653;SDS011;9456;47.824;16.228;2022-12-18T06:33:00;41.07;;;23.50;;
18653;SDS011;9456;47.824;16.228;2022-12-18T06:35:29;39.33;;;22.63;;
18653;SDS011;9456;47.824;16.228;2022-12-18T06:37:58;36.67;;;22.07;;
18653;SDS011;9456;47.824;16.228;2022-12-18T06:40:26;38.20;;;20.93;;
18653;SDS011;9456;47.824;16.228;2022-12-18T06:42:55;40.43;;;22.63;;
18653;SDS011;9456;47.824;16.228;2022-12-18T06:45:24;41.70;;;22.57;;
18653;SDS011;9456;47.824;16.228;2022-12-18T06:47:53;35.23;;;21.20;;
18653;SDS011;9456;47.824;16.228;2022-12-18T06:50:22;29.57;;;18.77;;
18653;SDS011;9456;47.824;16.228;2022-12-18T06:52:57;33.43;;;19.67;;
18653;SDS011;9456;47.824;16.228;2022-12-18T06:55:26;31.33;;;18.30;;
18653;SDS011;9456;47.824;16.228;2022-12-18T06:57:55;32.27;;;19.77;;
18653;SDS011;9456;47.824;16.228;2022-12-18T07:00:24;34.90;;;21.13;;
18653;SDS011;9456;47.824;16.228;2022-12-18T07:02:53;35.07;;;20.57;;
18653;SDS011;9456;47.824;16.228;2022-12-18T07:05:22;32.50;;;19.30;;
18653;SDS011;9456;47.824;16.228;2022-12-18T07:07:51;38.93;;;20.00;;
18653;SDS011;9456;47.824;16.228;2022-12-18T07:10:20;32.63;;;19.00;;
18653;SDS011;9456;47.824;16.228;2022-12-18T07:12:49;32.63;;;19.47;;
18653;SDS011;9456;47.824;16.228;2022-12-18T07:15:18;30.07;;;18.27;;
18653;SDS011;9456;47.824;16.228;2022-12-18T07:17:47;37.97;;;22.73;;
18653;SDS011;9456;47.824;16.228;2022-12-18T07:20:16;37.77;;;23.30;;
18653;SDS011;9456;47.824;16.228;2022-12-18T07:22:45;28.57;;;18.97;;
18653;SDS011;9456;47.824;16.228;2022-12-18T07:25:15;26.13;;;16.23;;
18653;SDS011;9456;47.824;16.228;2022-12-18T07:27:44;23.77;;;15.97;;
18653;SDS011;9456;47.824;16.228;2022-12-18T07:30:13;26.03;;;16.60;;
18653;SDS011;9456;47.824;16.228;2022-12-18T07:32:42;23.63;;;14.13;;
18653;SDS011;9456;47.824;16.228;2022-12-18T07:35:11;18.63;;;12.80;;
18653;SDS011;9456;47.824;16.228;2022-12-18T07:37:40;25.13;;;14.33;;
18653;SDS011;9456;47.824;16.228;2022-12-18T07:40:10;22.97;;;14.13;;
18653;SDS011;9456;47.824;16.228;2022-12-18T07:42:39;22.13;;;14.50;;
18653;SDS011;9456;47.824;16.228;2022-12-18T07:45:09;19.87;;;13.83;;
18653;SDS011;9456;47.824;16.228;2022-12-18T07:47:38;22.53;;;14.17;;
18653;SDS011;9456;47.824;16.228;2022-12-18T07:50:09;15.90;;;12.80;;
18653;SDS011;9456;47.824;16.228;2022-12-18T07:52:37;16.83;;;11.83;;
18653;SDS011;9456;47.824;16.228;2022-12-18T07:55:09;15.23;;;10.93;;
18653;SDS011;9456;47.824;16.228;2022-12-18T07:57:38;19.43;;;11.90;;
18653;SDS011;9456;47.824;16.228;2022-12-18T08:00:07;14.33;;;10.37;;
18653;SDS011;9456;47.824;16.228;2022-12-18T08:02:37;15.57;;;11.10;;
18653;SDS011;9456;47.824;16.228;2022-12-18T08:05:07;13.57;;;10.10;;
18653;SDS011;9456;47.824;16.228;2022-12-18T08:07:36;13.83;;;11.17;;
18653;SDS011;9456;47.824;16.228;2022-12-18T08:10:06;17.93;;;12.50;;
18653;SDS011;9456;47.824;16.228;2022-12-18T08:12:35;18.60;;;13.23;;
18653;SDS011;9456;47.824;16.228;2022-12-18T08:15:05;17.50;;;12.77;;
18653;SDS011;9456;47.824;16.228;2022-12-18T08:17:35;15.60;;;11.87;;
18653;SDS011;9456;47.824;16.228;2022-12-18T08:20:04;15.13;;;10.87;;
18653;SDS011;9456;47.824;16.228;2022-12-18T08:22:41;19.10;;;11.20;;
18653;SDS011;9456;47.824;16.228;2022-12-18T08:25:10;15.27;;;11.30;;
18653;SDS011;9456;47.824;16.228;2022-12-18T08:27:39;16.77;;;12.07;;
18653;SDS011;9456;47.824;16.228;2022-12-18T08:30:10;16.40;;;11.87;;
18653;SDS011;9456;47.824;16.228;2022-12-18T08:32:39;15.83;;;12.20;;
18653;SDS011;9456;47.824;16.228;2022-12-18T08:35:09;18.20;;;12.73;;
18653;SDS011;9456;47.824;16.228;2022-12-18T08:37:38;16.30;;;13.00;;
18653;SDS011;9456;47.824;16.228;2022-12-18T08:40:09;18.63;;;12.93;;
18653;SDS011;9456;47.824;16.228;2022-12-18T08:42:38;19.53;;;13.83;;
18653;SDS011;9456;47.824;16.228;2022-12-18T08:45:25;22.63;;;15.73;;
18653;SDS011;9456;47.824;16.228;2022-12-18T08:47:54;20.13;;;13.87;;
18653;SDS011;9456;47.824;16.228;2022-12-18T08:50:23;18.07;;;13.40;;
18653;SDS011;9456;47.824;16.228;2022-12-18T08:52:52;25.20;;;15.93;;
18653;SDS011;9456;47.824;16.228;2022-12-18T08:55:21;23.47;;;17.30;;
18653;SDS011;9456;47.824;16.228;2022-12-18T08:57:51;20.07;;;14.23;;
18653;SDS011;9456;47.824;16.228;2022-12-18T09:00:20;16.70;;;12.87;;
18653;SDS011;9456;47.824;16.228;2022-12-18T09:02:49;21.63;;;15.03;;
18653;SDS011;9456;47.824;16.228;2022-12-18T09:05:18;21.80;;;16.00;;
18653;SDS011;9456;47.824;16.228;2022-12-18T09:07:47;21.40;;;15.50;;
18653;SDS011;9456;47.824;16.228;2022-12-18T09:10:16;21.20;;;15.23;;
18653;SDS011;9456;47.824;16.228;2022-12-18T09:12:45;23.37;;;16.17;;
18653;SDS011;9456;47.824;16.228;2022-12-18T09:15:14;21.73;;;15.87;;
18653;SDS011;9456;47.824;16.228;2022-12-18T09:17:43;23.00;;;16.87;;
18653;SDS011;9456;47.824;16.228;2022-12-18T09:20:12;23.87;;;18.03;;
18653;SDS011;9456;47.824;16.228;2022-12-18T09:22:41;24.90;;;18.37;;
18653;SDS011;9456;47.824;16.228;2022-12-18T09:25:10;24.90;;;18.60;;
18653;SDS011;9456;47.824;16.228;2022-12-18T09:27:39;26.03;;;19.40;;
18653;SDS011;9456;47.824;16.228;2022-12-18T09:30:08;29.90;;;20.60;;
18653;SDS011;9456;47.824;16.228;2022-12-18T09:32:38;28.70;;;18.90;;
18653;SDS011;9456;47.824;16.228;2022-12-18T09:37:55;32.20;;;21.43;;
18653;SDS011;9456;47.824;16.228;2022-12-18T09:40:25;30.63;;;19.30;;
18653;SDS011;9456;47.824;16.228;2022-12-18T09:42:53;28.80;;;19.50;;
18653;SDS011;9456;47.824;16.228;2022-12-18T09:45:22;39.70;;;19.50;;
18653;SDS011;9456;47.824;16.228;2022-12-18T09:47:51;28.23;;;18.53;;
18653;SDS011;9456;47.824;16.228;2022-12-18T09:50:22;27.80;;;17.73;;
18653;SDS011;9456;47.824;16.228;2022-12-18T09:52:51;29.13;;;18.90;;
18653;SDS011;9456;47.824;16.228;2022-12-18T09:55:20;31.20;;;19.17;;
18653;SDS011;9456;47.824;16.228;2022-12-18T09:57:51;35.20;;;21.80;;
18653;SDS011;9456;47.824;16.228;2022-12-18T10:00:23;40.27;;;23.77;;
18653;SDS011;9456;47.824;16.228;2022-12-18T10:02:51;34.53;;;22.60;;
18653;SDS011;9456;47.824;16.228;2022-12-18T10:05:24;36.23;;;22.40;;
18653;SDS011;9456;47.824;16.228;2022-12-18T10:07:53;37.87;;;24.57;;
18653;SDS011;9456;47.824;16.228;2022-12-18T10:10:29;35.23;;;23.73;;
18653;SDS011;9456;47.824;16.228;2022-12-18T10:13:02;43.60;;;26.13;;
18653;SDS011;9456;47.824;16.228;2022-12-18T10:15:31;39.03;;;24.90;;
18653;SDS011;9456;47.824;16.228;2022-12-18T10:18:02;40.60;;;24.20;;
18653;SDS011;9456;47.824;16.228;2022-12-18T10:20:32;36.37;;;24.23;;
18653;SDS011;9456;47.824;16.228;2022-12-18T10:23:01;38.07;;;26.07;;
18653;SDS011;9456;47.824;16.228;2022-12-18T10:25:31;37.37;;;24.93;;
18653;SDS011;9456;47.824;16.228;2022-12-18T10:28:00;39.13;;;24.27;;
18653;SDS011;9456;47.824;16.228;2022-12-18T10:30:28;33.37;;;21.80;;
18653;SDS011;9456;47.824;16.228;2022-12-18T10:33:01;31.83;;;21.47;;
18653;SDS011;9456;47.824;16.228;2022-12-18T10:35:30;34.47;;;23.23;;
18653;SDS011;9456;47.824;16.228;2022-12-18T10:38:07;34.53;;;21.80;;
18653;SDS011;9456;47.824;16.228;2022-12-18T10:40:47;38.57;;;23.07;;
18653;SDS011;9456;47.824;16.228;2022-12-18T10:43:16;35.37;;;22.57;;
18653;SDS011;9456;47.824;16.228;2022-12-18T10:45:49;33.93;;;22.73;;
18653;SDS011;9456;47.824;16.228;2022-12-18T10:48:19;33.93;;;22.33;;
18653;SDS011;9456;47.824;16.228;2022-12-18T10:50:49;34.27;;;23.80;;
18653;SDS011;9456;47.824;16.228;2022-12-18T10:53:19;40.83;;;22.67;;
18653;SDS011;9456;47.824;16.228;2022-12-18T10:55:47;34.20;;;23.63;;
18653;SDS011;9456;47.824;16.228;2022-12-18T10:58:20;35.90;;;23.33;;
18653;SDS011;9456;47.824;16.228;2022-12-18T11:01:02;33.87;;;22.20;;
18653;SDS011;9456;47.824;16.228;2022-12-18T11:06:10;33.93;;;22.17;;
18653;SDS011;9456;47.824;16.228;2022-12-18T11:08:39;35.07;;;22.73;;
18653;SDS011;9456;47.824;16.228;2022-12-18T11:11:15;37.30;;;23.50;;
18653;SDS011;9456;47.824;16.228;2022-12-18T11:13:43;40.47;;;24.87;;
18653;SDS011;9456;47.824;16.228;2022-12-18T11:16:19;38.87;;;25.20;;
18653;SDS011;9456;47.824;16.228;2022-12-18T11:18:48;33.23;;;22.77;;
18653;SDS011;9456;47.824;16.228;2022-12-18T11:21:19;33.50;;;23.70;;
18653;SDS011;9456;47.824;16.228;2022-12-18T11:23:49;33.23;;;23.57;;
18653;SDS011;9456;47.824;16.228;2022-12-18T11:26:17;33.17;;;23.10;;
18653;SDS011;9456;47.824;16.228;2022-12-18T11:28:49;39.17;;;24.87;;
18653;SDS011;9456;47.824;16.228;2022-12-18T11:31:21;42.20;;;26.33;;
18653;SDS011;9456;47.824;16.228;2022-12-18T11:33:52;37.43;;;24.73;;
18653;SDS011;9456;47.824;16.228;2022-12-18T11:36:32;37.87;;;25.37;;
18653;SDS011;9456;47.824;16.228;2022-12-18T11:39:02;37.63;;;24.97;;
18653;SDS011;9456;47.824;16.228;2022-12-18T11:41:30;39.57;;;25.60;;
18653;SDS011;9456;47.824;16.228;2022-12-18T11:44:19;37.87;;;24.80;;
18653;SDS011;9456;47.824;16.228;2022-12-18T11:46:49;35.77;;;24.57;;
18653;SDS011;9456;47.824;16.228;2022-12-18T11:49:19;37.50;;;24.10;;
18653;SDS011;9456;47.824;16.228;2022-12-18T11:51:48;40.00;;;25.60;;
18653;SDS011;9456;47.824;16.228;2022-12-18T11:54:16;39.77;;;23.23;;
18653;SDS011;9456;47.824;16.228;2022-12-18T11:56:46;38.40;;;24.07;;
18653;SDS011;9456;47.824;16.228;2022-12-18T11:59:15;38.73;;;23.97;;
18653;SDS011;9456;47.824;16.228;2022-12-18T12:01:47;37.57;;;24.77;;
18653;SDS011;9456;47.824;16.228;2022-12-18T12:04:37;38.67;;;24.43;;
18653;SDS011;9456;47.824;16.228;2022-12-18T12:07:18;38.87;;;24.20;;
18653;SDS011;9456;47.824;16.228;2022-12-18T12:09:53;38.33;;;25.40;;
18653;SDS011;9456;47.824;16.228;2022-12-18T12:12:26;37.80;;;24.37;;
18653;SDS011;9456;47.824;16.228;2022-12-18T12:14:57;35.87;;;25.07;;
18653;SDS011;9456;47.824;16.228;2022-12-18T12:17:27;35.53;;;23.90;;
18653;SDS011;9456;47.824;16.228;2022-12-18T12:19:58;43.97;;;26.83;;
18653;SDS011;9456;47.824;16.228;2022-12-18T12:22:28;42.40;;;26.23;;
18653;SDS011;9456;47.824;16.228;2022-12-18T12:24:59;41.47;;;26.13;;
18653;SDS011;9456;47.824;16.228;2022-12-18T12:27:35;45.70;;;28.70;;
18653;SDS011;9456;47.824;16.228;2022-12-18T12:30:04;44.73;;;28.70;;
18653;SDS011;9456;47.824;16.228;2022-12-18T12:32:49;47.07;;;29.40;;
18653;SDS011;9456;47.824;16.228;2022-12-18T12:35:23;40.60;;;27.77;;
18653;SDS011;9456;47.824;16.228;2022-12-18T12:37:55;45.23;;;29.03;;
18653;SDS011;9456;47.824;16.228;2022-12-18T12:40:24;44.30;;;28.40;;
18653;SDS011;9456;47.824;16.228;2022-12-18T12:42:53;40.10;;;28.07;;
18653;SDS011;9456;47.824;16.228;2022-12-18T12:45:40;39.97;;;26.67;;
18653;SDS011;9456;47.824;16.228;2022-12-18T12:48:16;41.00;;;26.40;;
18653;SDS011;9456;47.824;16.228;2022-12-18T12:50:46;39.97;;;26.83;;
18653;SDS011;9456;47.824;16.228;2022-12-18T12:53:17;37.33;;;24.40;;
18653;SDS011;9456;47.824;16.228;2022-12-18T12:55:47;40.60;;;26.80;;
18653;SDS011;9456;47.824;16.228;2022-12-18T12:58:17;39.87;;;26.70;;
18653;SDS011;9456;47.824;16.228;2022-12-18T13:00:46;41.23;;;25.57;;
18653;SDS011;9456;47.824;16.228;2022-12-18T13:03:15;41.00;;;25.93;;
18653;SDS011;9456;47.824;16.228;2022-12-18T13:14:02;42.03;;;26.50;;
18653;SDS011;9456;47.824;16.228;2022-12-18T13:16:31;41.47;;;27.33;;
18653;SDS011;9456;47.824;16.228;2022-12-18T13:19:00;42.03;;;26.23;;
18653;SDS011;9456;47.824;16.228;2022-12-18T13:21:29;43.07;;;25.97;;
18653;SDS011;9456;47.824;16.228;2022-12-18T13:24:08;53.90;;;32.40;;
18653;SDS011;9456;47.824;16.228;2022-12-18T13:26:33;48.33;;;29.63;;
18653;SDS011;9456;47.824;16.228;2022-12-18T13:29:05;48.27;;;30.53;;
18653;SDS011;9456;47.824;16.228;2022-12-18T13:34:47;49.20;;;30.17;;
18653;SDS011;9456;47.824;16.228;2022-12-18T13:43:29;46.33;;;29.23;;
18653;SDS011;9456;47.824;16.228;2022-12-18T13:46:18;45.77;;;30.53;;
18653;SDS011;9456;47.824;16.228;2022-12-18T13:48:52;46.20;;;28.33;;
18653;SDS011;9456;47.824;16.228;2022-12-18T13:51:20;45.43;;;27.60;;
18653;SDS011;9456;47.824;16.228;2022-12-18T13:53:51;46.27;;;29.40;;
18653;SDS011;9456;47.824;16.228;2022-12-18T13:56:23;50.43;;;32.30;;
18653;SDS011;9456;47.824;16.228;2022-12-18T13:59:09;45.97;;;28.33;;
18653;SDS011;9456;47.824;16.228;2022-12-18T14:01:46;49.90;;;31.03;;
18653;SDS011;9456;47.824;16.228;2022-12-18T14:04:18;48.90;;;29.03;;
18653;SDS011;9456;47.824;16.228;2022-12-18T14:06:56;50.83;;;30.90;;
18653;SDS011;9456;47.824;16.228;2022-12-18T14:09:26;57.17;;;33.93;;
18653;SDS011;9456;47.824;16.228;2022-12-18T14:11:55;46.60;;;30.30;;
18653;SDS011;9456;47.824;16.228;2022-12-18T14:14:24;47.40;;;30.43;;
18653;SDS011;9456;47.824;16.228;2022-12-18T14:16:53;52.83;;;33.57;;
18653;SDS011;9456;47.824;16.228;2022-12-18T14:19:22;52.00;;;32.00;;
18653;SDS011;9456;47.824;16.228;2022-12-18T14:21:51;56.57;;;35.27;;
18653;SDS011;9456;47.824;16.228;2022-12-18T14:24:21;52.07;;;31.20;;
18653;SDS011;9456;47.824;16.228;2022-12-18T14:26:49;72.87;;;41.77;;
18653;SDS011;9456;47.824;16.228;2022-12-18T14:29:19;72.63;;;45.73;;
18653;SDS011;9456;47.824;16.228;2022-12-18T14:32:09;54.27;;;34.50;;
18653;SDS011;9456;47.824;16.228;2022-12-18T14:34:38;52.27;;;32.70;;
18653;SDS011;9456;47.824;16.228;2022-12-18T14:37:07;55.90;;;32.43;;
18653;SDS011;9456;47.824;16.228;2022-12-18T14:39:38;55.83;;;35.67;;
18653;SDS011;9456;47.824;16.228;2022-12-18T14:42:10;68.40;;;39.93;;
18653;SDS011;9456;47.824;16.228;2022-12-18T14:44:39;62.93;;;34.07;;
18653;SDS011;9456;47.824;16.228;2022-12-18T14:47:12;55.33;;;33.13;;
18653;SDS011;9456;47.824;16.228;2022-12-18T14:49:41;60.00;;;34.77;;
18653;SDS011;9456;47.824;16.228;2022-12-18T14:52:16;47.10;;;29.80;;
18653;SDS011;9456;47.824;16.228;2022-12-18T14:54:46;38.83;;;24.90;;
18653;SDS011;9456;47.824;16.228;2022-12-18T14:57:17;38.53;;;24.20;;
18653;SDS011;9456;47.824;16.228;2022-12-18T14:59:44;37.87;;;23.03;;
18653;SDS011;9456;47.824;16.228;2022-12-18T15:02:15;37.10;;;22.47;;
18653;SDS011;9456;47.824;16.228;2022-12-18T15:04:42;35.33;;;22.17;;
18653;SDS011;9456;47.824;16.228;2022-12-18T15:07:18;39.60;;;24.63;;
18653;SDS011;9456;47.824;16.228;2022-12-18T15:10:02;53.80;;;32.00;;
18653;SDS011;9456;47.824;16.228;2022-12-18T15:12:32;80.87;;;41.53;;
18653;SDS011;9456;47.824;16.228;2022-12-18T15:15:01;71.80;;;36.73;;
18653;SDS011;9456;47.824;16.228;2022-12-18T15:17:30;71.63;;;40.07;;